sensor_id;sensor_type;location;lat;lon;timestamp;temperature;humidity
25192;DHT22;13143;50.924;5.320;2022-10-30T00:00:01;19.10;99.90
25192;DHT22;13143;50.924;5.320;2022-10-30T00:02:26;19.10;99.90
25192;DHT22;13143;50.924;5.320;2022-10-30T00:04:52;19.10;99.90
25192;DHT22;13143;50.924;5.320;2022-10-30T00:07:17;19.00;99.90
25192;DHT22;13143;50.924;5.320;2022-10-30T00:09:43;19.00;99.90
25192;DHT22;13143;50.924;5.320;2022-10-30T00:12:09;19.00;99.90
25192;DHT22;13143;50.924;5.320;2022-10-30T00:14:34;19.00;99.90
25192;DHT22;13143;50.924;5.320;2022-10-30T00:17:00;19.00;99.90
25192;DHT22;13143;50.924;5.320;2022-10-30T00:19:25;19.00;99.90
25192;DHT22;13143;50.924;5.320;2022-10-30T00:21:51;19.00;99.90
25192;DHT22;13143;50.924;5.320;2022-10-30T00:24:16;18.90;99.90
25192;DHT22;13143;50.924;5.320;2022-10-30T00:26:42;18.90;99.90
25192;DHT22;13143;50.924;5.320;2022-10-30T00:29:08;18.90;99.90
25192;DHT22;13143;50.924;5.320;2022-10-30T00:31:33;18.90;99.90
25192;DHT22;13143;50.924;5.320;2022-10-30T00:33:59;18.90;99.90
25192;DHT22;13143;50.924;5.320;2022-10-30T00:36:24;18.90;99.90
25192;DHT22;13143;50.924;5.320;2022-10-30T00:38:50;18.90;99.90
25192;DHT22;13143;50.924;5.320;2022-10-30T00:41:23;18.90;99.90
25192;DHT22;13143;50.924;5.320;2022-10-30T00:43:49;18.80;99.90
25192;DHT22;13143;50.924;5.320;2022-10-30T00:46:29;18.80;99.90
25192;DHT22;13143;50.924;5.320;2022-10-30T00:49:02;18.80;99.90
25192;DHT22;13143;50.924;5.320;2022-10-30T00:51:31;18.80;99.90
25192;DHT22;13143;50.924;5.320;2022-10-30T00:53:59;18.80;99.90
25192;DHT22;13143;50.924;5.320;2022-10-30T00:56:27;18.80;99.90
25192;DHT22;13143;50.924;5.320;2022-10-30T00:58:57;18.70;99.90
25192;DHT22;13143;50.924;5.320;2022-10-30T01:01:25;18.70;99.90
25192;DHT22;13143;50.924;5.320;2022-10-30T01:03:55;18.70;99.90
25192;DHT22;13143;50.924;5.320;2022-10-30T01:06:22;18.70;99.90
25192;DHT22;13143;50.924;5.320;2022-10-30T01:08:49;18.70;99.90
25192;DHT22;13143;50.924;5.320;2022-10-30T01:11:16;18.70;99.90
25192;DHT22;13143;50.924;5.320;2022-10-30T01:13:43;18.60;99.90
25192;DHT22;13143;50.924;5.320;2022-10-30T01:18:58;18.70;99.90
25192;DHT22;13143;50.924;5.320;2022-10-30T01:32:28;18.60;99.90
25192;DHT22;13143;50.924;5.320;2022-10-30T01:35:07;18.50;99.90
25192;DHT22;13143;50.924;5.320;2022-10-30T01:37:44;18.50;99.90
25192;DHT22;13143;50.924;5.320;2022-10-30T01:40:14;18.40;99.90
25192;DHT22;13143;50.924;5.320;2022-10-30T02:00:09;18.30;99.90
25192;DHT22;13143;50.924;5.320;2022-10-30T02:02:35;18.30;99.90
25192;DHT22;13143;50.924;5.320;2022-10-30T02:05:02;18.30;99.90
25192;DHT22;13143;50.924;5.320;2022-10-30T02:07:28;18.30;99.90
25192;DHT22;13143;50.924;5.320;2022-10-30T02:09:54;18.20;99.90
25192;DHT22;13143;50.924;5.320;2022-10-30T02:12:21;18.30;99.90
25192;DHT22;13143;50.924;5.320;2022-10-30T02:14:50;18.20;99.90
25192;DHT22;13143;50.924;5.320;2022-10-30T02:17:18;18.20;99.90
25192;DHT22;13143;50.924;5.320;2022-10-30T02:19:43;18.20;99.90
25192;DHT22;13143;50.924;5.320;2022-10-30T02:22:09;18.20;99.90
25192;DHT22;13143;50.924;5.320;2022-10-30T02:24:36;18.20;99.90
25192;DHT22;13143;50.924;5.320;2022-10-30T02:27:01;18.10;99.90
25192;DHT22;13143;50.924;5.320;2022-10-30T02:29:27;18.10;99.90
25192;DHT22;13143;50.924;5.320;2022-10-30T02:31:53;18.10;99.90
25192;DHT22;13143;50.924;5.320;2022-10-30T02:34:19;18.10;99.90
25192;DHT22;13143;50.924;5.320;2022-10-30T02:36:44;18.10;99.90
25192;DHT22;13143;50.924;5.320;2022-10-30T02:39:10;18.10;99.90
25192;DHT22;13143;50.924;5.320;2022-10-30T02:41:36;18.00;99.90
25192;DHT22;13143;50.924;5.320;2022-10-30T02:44:02;18.00;99.90
25192;DHT22;13143;50.924;5.320;2022-10-30T02:46:28;18.00;99.90
25192;DHT22;13143;50.924;5.320;2022-10-30T02:48:54;18.00;99.90
25192;DHT22;13143;50.924;5.320;2022-10-30T02:51:19;18.00;99.90
25192;DHT22;13143;50.924;5.320;2022-10-30T02:53:45;18.00;99.90
25192;DHT22;13143;50.924;5.320;2022-10-30T02:56:13;18.00;99.90
25192;DHT22;13143;50.924;5.320;2022-10-30T02:58:39;17.90;99.90
25192;DHT22;13143;50.924;5.320;2022-10-30T03:01:16;18.00;99.90
25192;DHT22;13143;50.924;5.320;2022-10-30T03:03:42;18.00;99.90
25192;DHT22;13143;50.924;5.320;2022-10-30T03:06:10;17.90;99.90
25192;DHT22;13143;50.924;5.320;2022-10-30T03:08:36;17.90;99.90
25192;DHT22;13143;50.924;5.320;2022-10-30T03:11:05;17.90;99.90
25192;DHT22;13143;50.924;5.320;2022-10-30T03:13:31;17.90;99.90
25192;DHT22;13143;50.924;5.320;2022-10-30T03:16:05;17.80;99.90
25192;DHT22;13143;50.924;5.320;2022-10-30T03:18:32;17.80;99.90
25192;DHT22;13143;50.924;5.320;2022-10-30T03:20:59;17.80;99.90
25192;DHT22;13143;50.924;5.320;2022-10-30T03:23:26;17.80;99.90
25192;DHT22;13143;50.924;5.320;2022-10-30T03:25:53;17.80;99.90
25192;DHT22;13143;50.924;5.320;2022-10-30T03:28:21;17.80;99.90
25192;DHT22;13143;50.924;5.320;2022-10-30T03:30:48;17.80;99.90
25192;DHT22;13143;50.924;5.320;2022-10-30T03:33:14;17.80;99.90
25192;DHT22;13143;50.924;5.320;2022-10-30T03:35:39;17.80;99.90
25192;DHT22;13143;50.924;5.320;2022-10-30T03:38:07;17.70;99.90
25192;DHT22;13143;50.924;5.320;2022-10-30T03:40:32;17.70;99.90
25192;DHT22;13143;50.924;5.320;2022-10-30T03:42:58;17.70;99.90
25192;DHT22;13143;50.924;5.320;2022-10-30T03:45:24;17.70;99.90
25192;DHT22;13143;50.924;5.320;2022-10-30T03:47:49;17.70;99.90
25192;DHT22;13143;50.924;5.320;2022-10-30T03:50:15;17.60;99.90
25192;DHT22;13143;50.924;5.320;2022-10-30T03:52:40;17.60;99.90
25192;DHT22;13143;50.924;5.320;2022-10-30T03:55:06;17.60;99.90
25192;DHT22;13143;50.924;5.320;2022-10-30T03:57:36;17.60;99.90
25192;DHT22;13143;50.924;5.320;2022-10-30T04:00:03;17.60;99.90
25192;DHT22;13143;50.924;5.320;2022-10-30T04:02:28;17.60;99.90
25192;DHT22;13143;50.924;5.320;2022-10-30T04:04:54;17.60;99.90
25192;DHT22;13143;50.924;5.320;2022-10-30T04:07:20;17.60;99.90
25192;DHT22;13143;50.924;5.320;2022-10-30T04:09:45;17.60;99.90
25192;DHT22;13143;50.924;5.320;2022-10-30T04:12:11;17.60;99.90
25192;DHT22;13143;50.924;5.320;2022-10-30T04:14:36;17.50;99.90
25192;DHT22;13143;50.924;5.320;2022-10-30T04:17:02;17.60;99.90
25192;DHT22;13143;50.924;5.320;2022-10-30T04:19:30;17.50;99.90
25192;DHT22;13143;50.924;5.320;2022-10-30T04:21:56;17.50;99.90
25192;DHT22;13143;50.924;5.320;2022-10-30T04:24:22;17.50;99.90
25192;DHT22;13143;50.924;5.320;2022-10-30T04:26:47;17.50;99.90
25192;DHT22;13143;50.924;5.320;2022-10-30T04:29:13;17.50;99.90
25192;DHT22;13143;50.924;5.320;2022-10-30T04:31:39;17.50;99.90
25192;DHT22;13143;50.924;5.320;2022-10-30T04:34:04;17.50;99.90
25192;DHT22;13143;50.924;5.320;2022-10-30T04:36:30;17.50;99.90
25192;DHT22;13143;50.924;5.320;2022-10-30T04:38:58;17.50;99.90
25192;DHT22;13143;50.924;5.320;2022-10-30T04:41:24;17.50;99.90
25192;DHT22;13143;50.924;5.320;2022-10-30T04:43:50;17.50;99.90
25192;DHT22;13143;50.924;5.320;2022-10-30T04:46:16;17.50;99.90
25192;DHT22;13143;50.924;5.320;2022-10-30T04:48:43;17.50;99.90
25192;DHT22;13143;50.924;5.320;2022-10-30T04:51:09;17.40;99.90
25192;DHT22;13143;50.924;5.320;2022-10-30T04:53:36;17.50;99.90
25192;DHT22;13143;50.924;5.320;2022-10-30T04:56:03;17.40;99.90
25192;DHT22;13143;50.924;5.320;2022-10-30T04:58:28;17.40;99.90
25192;DHT22;13143;50.924;5.320;2022-10-30T05:00:54;17.40;99.90
25192;DHT22;13143;50.924;5.320;2022-10-30T05:03:22;17.40;99.90
25192;DHT22;13143;50.924;5.320;2022-10-30T05:08:56;17.40;99.90
25192;DHT22;13143;50.924;5.320;2022-10-30T05:11:22;17.40;99.90
25192;DHT22;13143;50.924;5.320;2022-10-30T05:13:48;17.40;99.90
25192;DHT22;13143;50.924;5.320;2022-10-30T05:16:13;17.30;99.90
25192;DHT22;13143;50.924;5.320;2022-10-30T05:18:39;17.30;99.90
25192;DHT22;13143;50.924;5.320;2022-10-30T05:21:04;17.30;99.90
25192;DHT22;13143;50.924;5.320;2022-10-30T05:23:30;17.30;99.90
25192;DHT22;13143;50.924;5.320;2022-10-30T05:25:58;17.30;99.90
25192;DHT22;13143;50.924;5.320;2022-10-30T05:28:24;17.30;99.90
25192;DHT22;13143;50.924;5.320;2022-10-30T05:30:54;17.30;99.90
25192;DHT22;13143;50.924;5.320;2022-10-30T05:33:20;17.30;99.90
25192;DHT22;13143;50.924;5.320;2022-10-30T05:35:45;17.30;99.90
25192;DHT22;13143;50.924;5.320;2022-10-30T05:38:11;17.30;99.90
25192;DHT22;13143;50.924;5.320;2022-10-30T05:40:37;17.30;99.90
25192;DHT22;13143;50.924;5.320;2022-10-30T05:43:03;17.30;99.90
25192;DHT22;13143;50.924;5.320;2022-10-30T05:45:29;17.30;99.90
25192;DHT22;13143;50.924;5.320;2022-10-30T05:48:00;17.20;99.90
25192;DHT22;13143;50.924;5.320;2022-10-30T05:50:26;17.30;99.90
25192;DHT22;13143;50.924;5.320;2022-10-30T05:52:56;17.20;99.90
25192;DHT22;13143;50.924;5.320;2022-10-30T05:55:22;17.20;99.90
25192;DHT22;13143;50.924;5.320;2022-10-30T05:57:47;17.20;99.90
25192;DHT22;13143;50.924;5.320;2022-10-30T06:00:13;17.20;99.90
25192;DHT22;13143;50.924;5.320;2022-10-30T06:02:39;17.20;99.90
25192;DHT22;13143;50.924;5.320;2022-10-30T06:05:05;17.20;99.90
25192;DHT22;13143;50.924;5.320;2022-10-30T06:07:31;17.20;99.90
25192;DHT22;13143;50.924;5.320;2022-10-30T06:09:56;17.10;99.90
25192;DHT22;13143;50.924;5.320;2022-10-30T06:12:22;17.10;99.90
25192;DHT22;13143;50.924;5.320;2022-10-30T06:14:48;17.10;99.90
25192;DHT22;13143;50.924;5.320;2022-10-30T06:17:13;17.10;99.90
25192;DHT22;13143;50.924;5.320;2022-10-30T06:19:39;17.10;99.90
25192;DHT22;13143;50.924;5.320;2022-10-30T06:22:04;17.10;99.90
25192;DHT22;13143;50.924;5.320;2022-10-30T06:24:30;17.10;99.90
25192;DHT22;13143;50.924;5.320;2022-10-30T06:26:56;17.10;99.90
25192;DHT22;13143;50.924;5.320;2022-10-30T06:29:21;17.10;99.90
25192;DHT22;13143;50.924;5.320;2022-10-30T06:31:47;17.00;99.90
25192;DHT22;13143;50.924;5.320;2022-10-30T06:34:12;17.00;99.90
25192;DHT22;13143;50.924;5.320;2022-10-30T06:36:38;17.00;99.90
25192;DHT22;13143;50.924;5.320;2022-10-30T06:39:04;16.90;99.90
25192;DHT22;13143;50.924;5.320;2022-10-30T06:41:29;17.00;99.90
25192;DHT22;13143;50.924;5.320;2022-10-30T06:43:55;17.00;99.90
25192;DHT22;13143;50.924;5.320;2022-10-30T06:46:21;16.90;99.90
25192;DHT22;13143;50.924;5.320;2022-10-30T06:48:49;16.90;99.90
25192;DHT22;13143;50.924;5.320;2022-10-30T06:51:15;16.90;99.90
25192;DHT22;13143;50.924;5.320;2022-10-30T06:53:41;16.90;99.90
25192;DHT22;13143;50.924;5.320;2022-10-30T06:56:08;16.90;99.90
25192;DHT22;13143;50.924;5.320;2022-10-30T06:58:34;16.90;99.90
25192;DHT22;13143;50.924;5.320;2022-10-30T07:01:04;16.90;99.90
25192;DHT22;13143;50.924;5.320;2022-10-30T07:03:30;16.80;99.90
25192;DHT22;13143;50.924;5.320;2022-10-30T07:05:56;16.80;99.90
25192;DHT22;13143;50.924;5.320;2022-10-30T07:08:22;16.80;99.90
25192;DHT22;13143;50.924;5.320;2022-10-30T07:10:47;16.80;99.90
25192;DHT22;13143;50.924;5.320;2022-10-30T07:13:13;16.80;99.90
25192;DHT22;13143;50.924;5.320;2022-10-30T07:15:39;16.80;99.90
25192;DHT22;13143;50.924;5.320;2022-10-30T07:18:05;16.80;99.90
25192;DHT22;13143;50.924;5.320;2022-10-30T07:20:32;16.70;99.90
25192;DHT22;13143;50.924;5.320;2022-10-30T07:22:59;16.70;99.90
25192;DHT22;13143;50.924;5.320;2022-10-30T07:25:25;16.70;99.90
25192;DHT22;13143;50.924;5.320;2022-10-30T07:27:52;16.70;99.90
25192;DHT22;13143;50.924;5.320;2022-10-30T07:30:23;16.70;99.90
25192;DHT22;13143;50.924;5.320;2022-10-30T07:32:56;16.70;99.90
25192;DHT22;13143;50.924;5.320;2022-10-30T07:35:22;16.70;99.90
25192;DHT22;13143;50.924;5.320;2022-10-30T07:37:48;16.70;99.90
25192;DHT22;13143;50.924;5.320;2022-10-30T07:40:13;16.70;99.90
25192;DHT22;13143;50.924;5.320;2022-10-30T07:42:39;16.60;99.90
25192;DHT22;13143;50.924;5.320;2022-10-30T07:45:05;16.60;99.90
25192;DHT22;13143;50.924;5.320;2022-10-30T07:47:30;16.70;99.90
25192;DHT22;13143;50.924;5.320;2022-10-30T07:49:56;16.60;99.90
25192;DHT22;13143;50.924;5.320;2022-10-30T07:52:22;16.60;99.90
25192;DHT22;13143;50.924;5.320;2022-10-30T07:54:47;16.60;99.90
25192;DHT22;13143;50.924;5.320;2022-10-30T07:57:13;16.60;99.90
25192;DHT22;13143;50.924;5.320;2022-10-30T07:59:39;16.60;99.90
25192;DHT22;13143;50.924;5.320;2022-10-30T08:02:04;16.60;99.90
25192;DHT22;13143;50.924;5.320;2022-10-30T08:04:31;16.60;99.90
25192;DHT22;13143;50.924;5.320;2022-10-30T08:06:56;16.60;99.90
25192;DHT22;13143;50.924;5.320;2022-10-30T08:09:22;16.60;99.90
25192;DHT22;13143;50.924;5.320;2022-10-30T08:11:47;16.60;99.90
25192;DHT22;13143;50.924;5.320;2022-10-30T08:14:13;16.60;99.90
25192;DHT22;13143;50.924;5.320;2022-10-30T08:16:39;16.70;99.90
25192;DHT22;13143;50.924;5.320;2022-10-30T08:19:04;16.70;99.90
25192;DHT22;13143;50.924;5.320;2022-10-30T08:21:30;16.70;99.90
25192;DHT22;13143;50.924;5.320;2022-10-30T08:23:55;16.70;99.90
25192;DHT22;13143;50.924;5.320;2022-10-30T08:26:21;16.70;99.90
25192;DHT22;13143;50.924;5.320;2022-10-30T08:28:47;16.70;99.90
25192;DHT22;13143;50.924;5.320;2022-10-30T08:31:12;16.70;99.90
25192;DHT22;13143;50.924;5.320;2022-10-30T08:33:38;16.70;99.90
25192;DHT22;13143;50.924;5.320;2022-10-30T08:36:04;16.80;99.90
25192;DHT22;13143;50.924;5.320;2022-10-30T08:38:31;16.80;99.90
25192;DHT22;13143;50.924;5.320;2022-10-30T08:40:57;16.80;99.90
25192;DHT22;13143;50.924;5.320;2022-10-30T08:43:22;16.80;99.90
25192;DHT22;13143;50.924;5.320;2022-10-30T08:45:49;16.80;99.90
25192;DHT22;13143;50.924;5.320;2022-10-30T08:48:15;16.80;99.90
25192;DHT22;13143;50.924;5.320;2022-10-30T08:50:41;16.80;99.90
25192;DHT22;13143;50.924;5.320;2022-10-30T08:53:10;16.80;99.90
25192;DHT22;13143;50.924;5.320;2022-10-30T08:55:36;16.90;99.90
25192;DHT22;13143;50.924;5.320;2022-10-30T08:58:02;16.90;99.90
25192;DHT22;13143;50.924;5.320;2022-10-30T09:00:28;16.90;99.90
25192;DHT22;13143;50.924;5.320;2022-10-30T09:02:53;16.90;99.90
25192;DHT22;13143;50.924;5.320;2022-10-30T09:05:19;17.00;99.90
25192;DHT22;13143;50.924;5.320;2022-10-30T09:07:45;17.00;99.90
25192;DHT22;13143;50.924;5.320;2022-10-30T09:10:12;17.00;99.90
25192;DHT22;13143;50.924;5.320;2022-10-30T09:12:38;17.00;99.90
25192;DHT22;13143;50.924;5.320;2022-10-30T09:15:04;17.00;99.90
25192;DHT22;13143;50.924;5.320;2022-10-30T09:17:29;17.10;99.90
25192;DHT22;13143;50.924;5.320;2022-10-30T09:19:55;17.10;99.90
25192;DHT22;13143;50.924;5.320;2022-10-30T09:22:21;17.10;99.90
25192;DHT22;13143;50.924;5.320;2022-10-30T09:24:46;17.20;99.90
25192;DHT22;13143;50.924;5.320;2022-10-30T09:27:12;17.20;99.90
25192;DHT22;13143;50.924;5.320;2022-10-30T09:29:37;17.30;99.90
25192;DHT22;13143;50.924;5.320;2022-10-30T09:32:04;17.30;99.90
25192;DHT22;13143;50.924;5.320;2022-10-30T09:34:33;17.30;99.90
25192;DHT22;13143;50.924;5.320;2022-10-30T09:36:58;17.30;99.90
25192;DHT22;13143;50.924;5.320;2022-10-30T09:39:24;17.40;99.90
25192;DHT22;13143;50.924;5.320;2022-10-30T09:44:32;17.40;99.90
25192;DHT22;13143;50.924;5.320;2022-10-30T09:52:29;17.60;99.90
25192;DHT22;13143;50.924;5.320;2022-10-30T09:55:18;17.60;99.90
25192;DHT22;13143;50.924;5.320;2022-10-30T09:57:50;17.60;99.90
25192;DHT22;13143;50.924;5.320;2022-10-30T10:00:24;17.60;99.90
25192;DHT22;13143;50.924;5.320;2022-10-30T10:05:52;17.70;99.90
25192;DHT22;13143;50.924;5.320;2022-10-30T10:08:38;17.70;99.90
25192;DHT22;13143;50.924;5.320;2022-10-30T10:11:12;17.80;99.90
25192;DHT22;13143;50.924;5.320;2022-10-30T10:13:46;17.80;99.90
25192;DHT22;13143;50.924;5.320;2022-10-30T10:16:24;17.90;99.90
25192;DHT22;13143;50.924;5.320;2022-10-30T10:21:27;17.90;99.90
25192;DHT22;13143;50.924;5.320;2022-10-30T10:23:58;17.90;99.90
25192;DHT22;13143;50.924;5.320;2022-10-30T10:52:15;18.40;99.90
25192;DHT22;13143;50.924;5.320;2022-10-30T10:54:45;18.40;99.90
25192;DHT22;13143;50.924;5.320;2022-10-30T10:57:32;18.50;99.90
25192;DHT22;13143;50.924;5.320;2022-10-30T11:00:12;18.50;99.90
25192;DHT22;13143;50.924;5.320;2022-10-30T11:03:09;18.50;99.90
25192;DHT22;13143;50.924;5.320;2022-10-30T11:10:44;18.60;99.90
25192;DHT22;13143;50.924;5.320;2022-10-30T11:13:12;18.70;99.90
25192;DHT22;13143;50.924;5.320;2022-10-30T11:18:44;18.70;99.90
25192;DHT22;13143;50.924;5.320;2022-10-30T11:21:24;18.80;99.90
25192;DHT22;13143;50.924;5.320;2022-10-30T11:23:51;18.80;99.90
25192;DHT22;13143;50.924;5.320;2022-10-30T11:28:53;18.80;99.90
25192;DHT22;13143;50.924;5.320;2022-10-30T11:31:25;18.90;99.90
25192;DHT22;13143;50.924;5.320;2022-10-30T11:39:26;19.00;99.90
25192;DHT22;13143;50.924;5.320;2022-10-30T11:42:12;19.00;99.90
25192;DHT22;13143;50.924;5.320;2022-10-30T11:44:49;19.10;99.90
25192;DHT22;13143;50.924;5.320;2022-10-30T11:47:18;19.10;99.90
25192;DHT22;13143;50.924;5.320;2022-10-30T11:49:56;19.10;99.90
25192;DHT22;13143;50.924;5.320;2022-10-30T11:52:24;19.10;99.90
25192;DHT22;13143;50.924;5.320;2022-10-30T11:55:07;19.10;99.90
25192;DHT22;13143;50.924;5.320;2022-10-30T11:57:41;19.20;99.90
25192;DHT22;13143;50.924;5.320;2022-10-30T12:00:23;19.20;99.90
25192;DHT22;13143;50.924;5.320;2022-10-30T12:02:51;19.20;99.90
25192;DHT22;13143;50.924;5.320;2022-10-30T12:08:16;19.30;99.90
25192;DHT22;13143;50.924;5.320;2022-10-30T12:10:58;19.30;99.90
25192;DHT22;13143;50.924;5.320;2022-10-30T12:13:25;19.30;99.90
25192;DHT22;13143;50.924;5.320;2022-10-30T12:16:14;19.40;99.90
25192;DHT22;13143;50.924;5.320;2022-10-30T12:18:41;19.40;99.90
25192;DHT22;13143;50.924;5.320;2022-10-30T12:21:18;19.40;99.90
25192;DHT22;13143;50.924;5.320;2022-10-30T12:23:59;19.50;99.90
25192;DHT22;13143;50.924;5.320;2022-10-30T12:26:28;19.50;99.90
25192;DHT22;13143;50.924;5.320;2022-10-30T12:28:58;19.60;99.90
25192;DHT22;13143;50.924;5.320;2022-10-30T12:31:37;19.60;99.90
25192;DHT22;13143;50.924;5.320;2022-10-30T12:36:48;19.60;99.90
25192;DHT22;13143;50.924;5.320;2022-10-30T12:39:33;19.70;99.90
25192;DHT22;13143;50.924;5.320;2022-10-30T12:42:10;19.70;99.90
25192;DHT22;13143;50.924;5.320;2022-10-30T12:45:20;19.70;99.90
25192;DHT22;13143;50.924;5.320;2022-10-30T12:48:04;19.80;99.90
25192;DHT22;13143;50.924;5.320;2022-10-30T12:50:48;19.80;99.90
25192;DHT22;13143;50.924;5.320;2022-10-30T12:56:30;19.90;99.90
25192;DHT22;13143;50.924;5.320;2022-10-30T13:01:37;19.90;99.90
25192;DHT22;13143;50.924;5.320;2022-10-30T13:09:39;20.00;99.90
25192;DHT22;13143;50.924;5.320;2022-10-30T13:12:13;20.10;99.90
25192;DHT22;13143;50.924;5.320;2022-10-30T13:14:57;20.10;99.90
25192;DHT22;13143;50.924;5.320;2022-10-30T13:17:23;20.10;99.90
25192;DHT22;13143;50.924;5.320;2022-10-30T13:19:49;20.10;99.90
25192;DHT22;13143;50.924;5.320;2022-10-30T13:22:35;20.10;99.90
25192;DHT22;13143;50.924;5.320;2022-10-30T13:28:01;20.20;99.90
25192;DHT22;13143;50.924;5.320;2022-10-30T13:30:35;20.20;99.90
25192;DHT22;13143;50.924;5.320;2022-10-30T13:38:16;20.30;99.90
25192;DHT22;13143;50.924;5.320;2022-10-30T13:41:10;20.30;99.90
25192;DHT22;13143;50.924;5.320;2022-10-30T13:51:44;20.40;99.90
25192;DHT22;13143;50.924;5.320;2022-10-30T13:54:22;20.40;99.90
25192;DHT22;13143;50.924;5.320;2022-10-30T13:56:50;20.40;99.90
25192;DHT22;13143;50.924;5.320;2022-10-30T14:02:52;20.40;99.90
25192;DHT22;13143;50.924;5.320;2022-10-30T14:05:35;20.40;99.90
25192;DHT22;13143;50.924;5.320;2022-10-30T14:08:19;20.40;99.90
25192;DHT22;13143;50.924;5.320;2022-10-30T14:10:48;20.50;99.90
25192;DHT22;13143;50.924;5.320;2022-10-30T14:13:20;20.50;99.90
25192;DHT22;13143;50.924;5.320;2022-10-30T14:15:52;20.50;99.90
25192;DHT22;13143;50.924;5.320;2022-10-30T14:18:22;20.50;99.90
25192;DHT22;13143;50.924;5.320;2022-10-30T14:20:50;20.50;99.90
25192;DHT22;13143;50.924;5.320;2022-10-30T14:28:36;20.50;99.90
25192;DHT22;13143;50.924;5.320;2022-10-30T14:31:09;20.60;99.90
25192;DHT22;13143;50.924;5.320;2022-10-30T14:33:45;20.50;99.90
25192;DHT22;13143;50.924;5.320;2022-10-30T14:36:14;20.50;99.90
25192;DHT22;13143;50.924;5.320;2022-10-30T14:38:40;20.60;99.90
25192;DHT22;13143;50.924;5.320;2022-10-30T14:44:45;20.60;99.90
25192;DHT22;13143;50.924;5.320;2022-10-30T14:49:56;20.60;99.90
25192;DHT22;13143;50.924;5.320;2022-10-30T14:53:13;20.60;99.90
25192;DHT22;13143;50.924;5.320;2022-10-30T14:58:36;20.60;99.90
25192;DHT22;13143;50.924;5.320;2022-10-30T15:06:23;20.60;99.90
25192;DHT22;13143;50.924;5.320;2022-10-30T15:14:41;20.60;99.90
25192;DHT22;13143;50.924;5.320;2022-10-30T15:17:26;20.60;99.90
25192;DHT22;13143;50.924;5.320;2022-10-30T15:19:53;20.60;99.90
25192;DHT22;13143;50.924;5.320;2022-10-30T15:22:20;20.60;99.90
25192;DHT22;13143;50.924;5.320;2022-10-30T15:24:49;20.60;99.90
25192;DHT22;13143;50.924;5.320;2022-10-30T15:27:20;20.60;99.90
25192;DHT22;13143;50.924;5.320;2022-10-30T15:29:56;20.60;99.90
25192;DHT22;13143;50.924;5.320;2022-10-30T15:32:24;20.60;99.90
25192;DHT22;13143;50.924;5.320;2022-10-30T15:35:01;20.60;99.90
25192;DHT22;13143;50.924;5.320;2022-10-30T15:37:29;20.60;99.90
25192;DHT22;13143;50.924;5.320;2022-10-30T15:42:38;20.60;99.90
25192;DHT22;13143;50.924;5.320;2022-10-30T15:45:05;20.50;99.90
25192;DHT22;13143;50.924;5.320;2022-10-30T15:47:34;20.50;99.90
25192;DHT22;13143;50.924;5.320;2022-10-30T15:50:00;20.50;99.90
25192;DHT22;13143;50.924;5.320;2022-10-30T15:52:27;20.50;99.90
25192;DHT22;13143;50.924;5.320;2022-10-30T15:55:03;20.50;99.90
25192;DHT22;13143;50.924;5.320;2022-10-30T15:57:33;20.50;99.90
25192;DHT22;13143;50.924;5.320;2022-10-30T16:00:04;20.50;99.90
25192;DHT22;13143;50.924;5.320;2022-10-30T16:02:33;20.50;99.90
25192;DHT22;13143;50.924;5.320;2022-10-30T16:05:00;20.50;99.90
25192;DHT22;13143;50.924;5.320;2022-10-30T16:07:27;20.40;99.90
25192;DHT22;13143;50.924;5.320;2022-10-30T16:12:26;20.50;99.90
25192;DHT22;13143;50.924;5.320;2022-10-30T16:14:53;20.40;99.90
25192;DHT22;13143;50.924;5.320;2022-10-30T16:17:20;20.40;99.90
25192;DHT22;13143;50.924;5.320;2022-10-30T16:19:49;20.40;99.90
25192;DHT22;13143;50.924;5.320;2022-10-30T16:22:23;20.40;99.90
25192;DHT22;13143;50.924;5.320;2022-10-30T16:24:51;20.40;99.90
25192;DHT22;13143;50.924;5.320;2022-10-30T16:27:19;20.40;99.90
25192;DHT22;13143;50.924;5.320;2022-10-30T16:29:49;20.30;99.90
25192;DHT22;13143;50.924;5.320;2022-10-30T16:32:17;20.30;99.90
25192;DHT22;13143;50.924;5.320;2022-10-30T16:34:44;20.30;99.90
25192;DHT22;13143;50.924;5.320;2022-10-30T16:37:37;20.30;99.90
25192;DHT22;13143;50.924;5.320;2022-10-30T16:42:39;20.30;99.90
25192;DHT22;13143;50.924;5.320;2022-10-30T16:48:00;20.30;99.90
25192;DHT22;13143;50.924;5.320;2022-10-30T16:50:34;20.20;99.90
25192;DHT22;13143;50.924;5.320;2022-10-30T16:55:39;20.20;99.90
25192;DHT22;13143;50.924;5.320;2022-10-30T16:58:05;20.20;99.90
25192;DHT22;13143;50.924;5.320;2022-10-30T17:00:31;20.20;99.90
25192;DHT22;13143;50.924;5.320;2022-10-30T17:02:58;20.20;99.90
25192;DHT22;13143;50.924;5.320;2022-10-30T17:05:32;20.20;99.90
25192;DHT22;13143;50.924;5.320;2022-10-30T17:08:29;20.20;99.90
25192;DHT22;13143;50.924;5.320;2022-10-30T17:10:59;20.10;99.90
25192;DHT22;13143;50.924;5.320;2022-10-30T17:16:25;20.10;99.90
25192;DHT22;13143;50.924;5.320;2022-10-30T17:18:52;20.10;99.90
25192;DHT22;13143;50.924;5.320;2022-10-30T17:21:39;20.10;99.90
25192;DHT22;13143;50.924;5.320;2022-10-30T17:24:15;20.10;99.90
25192;DHT22;13143;50.924;5.320;2022-10-30T17:26:59;20.00;99.90
25192;DHT22;13143;50.924;5.320;2022-10-30T17:32:05;20.00;99.90
25192;DHT22;13143;50.924;5.320;2022-10-30T17:34:36;20.00;99.90
25192;DHT22;13143;50.924;5.320;2022-10-30T17:37:02;20.00;99.90
25192;DHT22;13143;50.924;5.320;2022-10-30T17:39:27;20.00;99.90
25192;DHT22;13143;50.924;5.320;2022-10-30T17:41:56;20.00;99.90
25192;DHT22;13143;50.924;5.320;2022-10-30T17:44:23;20.00;99.90
25192;DHT22;13143;50.924;5.320;2022-10-30T17:46:49;19.90;99.90
25192;DHT22;13143;50.924;5.320;2022-10-30T17:49:29;19.90;99.90
25192;DHT22;13143;50.924;5.320;2022-10-30T17:51:55;19.90;99.90
25192;DHT22;13143;50.924;5.320;2022-10-30T17:54:20;19.90;99.90
25192;DHT22;13143;50.924;5.320;2022-10-30T17:56:46;19.90;99.90
25192;DHT22;13143;50.924;5.320;2022-10-30T17:59:12;19.90;99.90
25192;DHT22;13143;50.924;5.320;2022-10-30T18:01:37;19.80;99.90
25192;DHT22;13143;50.924;5.320;2022-10-30T18:04:17;19.80;99.90
25192;DHT22;13143;50.924;5.320;2022-10-30T18:06:43;19.80;99.90
25192;DHT22;13143;50.924;5.320;2022-10-30T18:09:09;19.80;99.90
25192;DHT22;13143;50.924;5.320;2022-10-30T18:11:35;19.80;99.90
25192;DHT22;13143;50.924;5.320;2022-10-30T18:14:00;19.80;99.90
25192;DHT22;13143;50.924;5.320;2022-10-30T18:16:26;19.70;99.90
25192;DHT22;13143;50.924;5.320;2022-10-30T18:18:52;19.70;99.90
25192;DHT22;13143;50.924;5.320;2022-10-30T18:21:21;19.70;99.90
25192;DHT22;13143;50.924;5.320;2022-10-30T18:23:47;19.70;99.90
25192;DHT22;13143;50.924;5.320;2022-10-30T18:26:15;19.70;99.90
25192;DHT22;13143;50.924;5.320;2022-10-30T18:28:41;19.60;99.90
25192;DHT22;13143;50.924;5.320;2022-10-30T18:31:11;19.60;99.90